sensor_id;sensor_type;location;lat;lon;timestamp;P1;durP1;ratioP1;P2;durP2;ratioP2
27313;SDS011;14800;48.174;9.798;2023-12-22T00:00:11;4.63;;;0.60;;
27313;SDS011;14800;48.174;9.798;2023-12-22T00:02:37;1.92;;;0.70;;
27313;SDS011;14800;48.174;9.798;2023-12-22T00:05:03;2.35;;;0.77;;
27313;SDS011;14800;48.174;9.798;2023-12-22T00:07:29;3.55;;;0.80;;
27313;SDS011;14800;48.174;9.798;2023-12-22T00:09:54;4.35;;;0.88;;
27313;SDS011;14800;48.174;9.798;2023-12-22T00:12:20;3.08;;;0.80;;
27313;SDS011;14800;48.174;9.798;2023-12-22T00:14:45;2.15;;;0.80;;
27313;SDS011;14800;48.174;9.798;2023-12-22T00:17:11;2.13;;;0.80;;
27313;SDS011;14800;48.174;9.798;2023-12-22T00:19:36;3.90;;;1.00;;
27313;SDS011;14800;48.174;9.798;2023-12-22T00:22:02;3.60;;;0.88;;
27313;SDS011;14800;48.174;9.798;2023-12-22T00:24:28;3.63;;;0.70;;
27313;SDS011;14800;48.174;9.798;2023-12-22T00:26:54;1.98;;;0.80;;
27313;SDS011;14800;48.174;9.798;2023-12-22T00:29:20;4.85;;;1.02;;
27313;SDS011;14800;48.174;9.798;2023-12-22T00:31:45;2.90;;;1.30;;
27313;SDS011;14800;48.174;9.798;2023-12-22T00:34:11;2.45;;;0.60;;
27313;SDS011;14800;48.174;9.798;2023-12-22T00:36:36;2.13;;;0.70;;
27313;SDS011;14800;48.174;9.798;2023-12-22T00:39:02;2.58;;;0.90;;
27313;SDS011;14800;48.174;9.798;2023-12-22T00:41:28;2.60;;;1.05;;
27313;SDS011;14800;48.174;9.798;2023-12-22T00:43:53;1.73;;;0.57;;
27313;SDS011;14800;48.174;9.798;2023-12-22T00:46:19;1.58;;;0.50;;
27313;SDS011;14800;48.174;9.798;2023-12-22T00:48:45;1.45;;;0.50;;
27313;SDS011;14800;48.174;9.798;2023-12-22T00:51:11;2.45;;;0.40;;
27313;SDS011;14800;48.174;9.798;2023-12-22T00:53:36;1.52;;;0.70;;
27313;SDS011;14800;48.174;9.798;2023-12-22T00:56:02;2.40;;;0.30;;
27313;SDS011;14800;48.174;9.798;2023-12-22T00:58:29;1.63;;;0.60;;
27313;SDS011;14800;48.174;9.798;2023-12-22T01:00:55;2.03;;;0.60;;
27313;SDS011;14800;48.174;9.798;2023-12-22T01:03:20;1.95;;;0.50;;
27313;SDS011;14800;48.174;9.798;2023-12-22T01:05:46;4.10;;;0.40;;
27313;SDS011;14800;48.174;9.798;2023-12-22T01:08:11;2.97;;;0.60;;
27313;SDS011;14800;48.174;9.798;2023-12-22T01:10:37;0.90;;;0.40;;
27313;SDS011;14800;48.174;9.798;2023-12-22T01:13:02;2.33;;;0.57;;
27313;SDS011;14800;48.174;9.798;2023-12-22T01:15:28;2.13;;;0.60;;
27313;SDS011;14800;48.174;9.798;2023-12-22T01:17:54;1.85;;;0.50;;
27313;SDS011;14800;48.174;9.798;2023-12-22T01:20:19;4.65;;;0.75;;
27313;SDS011;14800;48.174;9.798;2023-12-22T01:22:45;3.33;;;0.85;;
27313;SDS011;14800;48.174;9.798;2023-12-22T01:25:10;2.78;;;0.60;;
27313;SDS011;14800;48.174;9.798;2023-12-22T01:27:36;5.82;;;1.08;;
27313;SDS011;14800;48.174;9.798;2023-12-22T01:30:02;3.10;;;0.90;;
27313;SDS011;14800;48.174;9.798;2023-12-22T01:32:28;4.28;;;0.75;;
27313;SDS011;14800;48.174;9.798;2023-12-22T01:34:59;5.65;;;1.00;;
27313;SDS011;14800;48.174;9.798;2023-12-22T01:37:28;5.05;;;0.70;;
27313;SDS011;14800;48.174;9.798;2023-12-22T01:39:54;2.45;;;0.80;;
27313;SDS011;14800;48.174;9.798;2023-12-22T01:42:20;2.72;;;0.65;;
27313;SDS011;14800;48.174;9.798;2023-12-22T01:44:45;2.88;;;0.65;;
27313;SDS011;14800;48.174;9.798;2023-12-22T01:47:11;4.68;;;0.60;;
27313;SDS011;14800;48.174;9.798;2023-12-22T01:49:37;2.83;;;0.73;;
27313;SDS011;14800;48.174;9.798;2023-12-22T01:52:02;3.67;;;0.70;;
27313;SDS011;14800;48.174;9.798;2023-12-22T01:54:28;5.90;;;0.77;;
27313;SDS011;14800;48.174;9.798;2023-12-22T01:56:55;3.33;;;0.57;;
27313;SDS011;14800;48.174;9.798;2023-12-22T01:59:20;2.72;;;0.50;;
27313;SDS011;14800;48.174;9.798;2023-12-22T02:01:46;1.50;;;0.40;;
27313;SDS011;14800;48.174;9.798;2023-12-22T02:04:12;3.78;;;0.60;;
27313;SDS011;14800;48.174;9.798;2023-12-22T02:06:40;2.25;;;0.30;;
27313;SDS011;14800;48.174;9.798;2023-12-22T02:09:07;0.85;;;0.32;;
27313;SDS011;14800;48.174;9.798;2023-12-22T02:11:33;1.02;;;0.30;;
27313;SDS011;14800;48.174;9.798;2023-12-22T02:13:59;1.13;;;0.50;;
27313;SDS011;14800;48.174;9.798;2023-12-22T02:16:31;1.55;;;0.20;;
27313;SDS011;14800;48.174;9.798;2023-12-22T02:19:09;0.80;;;0.20;;
27313;SDS011;14800;48.174;9.798;2023-12-22T02:22:07;1.15;;;0.22;;
27313;SDS011;14800;48.174;9.798;2023-12-22T02:24:33;1.10;;;0.20;;
27313;SDS011;14800;48.174;9.798;2023-12-22T02:27:04;0.28;;;0.10;;
27313;SDS011;14800;48.174;9.798;2023-12-22T02:29:37;0.57;;;0.20;;
27313;SDS011;14800;48.174;9.798;2023-12-22T02:32:12;1.73;;;0.20;;
27313;SDS011;14800;48.174;9.798;2023-12-22T02:34:45;0.65;;;0.20;;
27313;SDS011;14800;48.174;9.798;2023-12-22T02:37:14;0.90;;;0.30;;
27313;SDS011;14800;48.174;9.798;2023-12-22T02:39:42;1.00;;;0.30;;
27313;SDS011;14800;48.174;9.798;2023-12-22T02:42:08;0.52;;;0.30;;
27313;SDS011;14800;48.174;9.798;2023-12-22T02:44:34;0.63;;;0.30;;
27313;SDS011;14800;48.174;9.798;2023-12-22T02:47:00;0.50;;;0.10;;
27313;SDS011;14800;48.174;9.798;2023-12-22T02:49:25;0.38;;;0.10;;
27313;SDS011;14800;48.174;9.798;2023-12-22T02:51:51;0.47;;;0.10;;
27313;SDS011;14800;48.174;9.798;2023-12-22T02:54:17;1.27;;;0.20;;
27313;SDS011;14800;48.174;9.798;2023-12-22T02:56:45;0.68;;;0.20;;
27313;SDS011;14800;48.174;9.798;2023-12-22T02:59:11;0.10;;;0.10;;
27313;SDS011;14800;48.174;9.798;2023-12-22T03:01:36;1.05;;;0.38;;
27313;SDS011;14800;48.174;9.798;2023-12-22T03:04:02;0.40;;;0.20;;
27313;SDS011;14800;48.174;9.798;2023-12-22T03:06:28;1.08;;;0.25;;
27313;SDS011;14800;48.174;9.798;2023-12-22T03:08:53;1.60;;;0.50;;
27313;SDS011;14800;48.174;9.798;2023-12-22T03:11:19;1.67;;;0.30;;
27313;SDS011;14800;48.174;9.798;2023-12-22T03:13:44;0.98;;;0.50;;
27313;SDS011;14800;48.174;9.798;2023-12-22T03:16:10;5.20;;;0.70;;
27313;SDS011;14800;48.174;9.798;2023-12-22T03:18:37;1.70;;;0.40;;
27313;SDS011;14800;48.174;9.798;2023-12-22T03:21:04;2.58;;;0.50;;
27313;SDS011;14800;48.174;9.798;2023-12-22T03:23:30;1.60;;;0.43;;
27313;SDS011;14800;48.174;9.798;2023-12-22T03:25:55;2.42;;;0.63;;
27313;SDS011;14800;48.174;9.798;2023-12-22T03:28:21;2.72;;;0.68;;
27313;SDS011;14800;48.174;9.798;2023-12-22T03:30:46;1.88;;;0.50;;
27313;SDS011;14800;48.174;9.798;2023-12-22T03:33:12;2.35;;;0.57;;
27313;SDS011;14800;48.174;9.798;2023-12-22T03:35:37;2.35;;;0.73;;
27313;SDS011;14800;48.174;9.798;2023-12-22T03:38:03;2.25;;;0.55;;
27313;SDS011;14800;48.174;9.798;2023-12-22T03:40:29;2.65;;;0.65;;
27313;SDS011;14800;48.174;9.798;2023-12-22T03:42:55;3.75;;;0.85;;
27313;SDS011;14800;48.174;9.798;2023-12-22T03:45:20;1.58;;;0.50;;
27313;SDS011;14800;48.174;9.798;2023-12-22T03:47:46;3.00;;;0.40;;
27313;SDS011;14800;48.174;9.798;2023-12-22T03:50:12;2.20;;;0.50;;
27313;SDS011;14800;48.174;9.798;2023-12-22T03:52:37;2.35;;;0.50;;
27313;SDS011;14800;48.174;9.798;2023-12-22T03:55:03;3.10;;;0.32;;
27313;SDS011;14800;48.174;9.798;2023-12-22T03:57:29;1.52;;;0.30;;
27313;SDS011;14800;48.174;9.798;2023-12-22T03:59:54;2.05;;;0.20;;
27313;SDS011;14800;48.174;9.798;2023-12-22T04:02:20;1.85;;;0.38;;
27313;SDS011;14800;48.174;9.798;2023-12-22T04:04:45;0.38;;;0.20;;
27313;SDS011;14800;48.174;9.798;2023-12-22T04:07:11;1.55;;;0.20;;
27313;SDS011;14800;48.174;9.798;2023-12-22T04:09:37;0.65;;;0.10;;
27313;SDS011;14800;48.174;9.798;2023-12-22T04:12:03;1.55;;;0.20;;
27313;SDS011;14800;48.174;9.798;2023-12-22T04:14:29;0.80;;;0.22;;
27313;SDS011;14800;48.174;9.798;2023-12-22T04:16:55;1.05;;;0.20;;
27313;SDS011;14800;48.174;9.798;2023-12-22T04:19:22;2.95;;;0.40;;
27313;SDS011;14800;48.174;9.798;2023-12-22T04:21:47;1.67;;;0.40;;
27313;SDS011;14800;48.174;9.798;2023-12-22T04:24:13;2.17;;;0.45;;
27313;SDS011;14800;48.174;9.798;2023-12-22T04:26:39;2.63;;;0.60;;
27313;SDS011;14800;48.174;9.798;2023-12-22T04:29:05;1.60;;;0.40;;
27313;SDS011;14800;48.174;9.798;2023-12-22T04:31:30;2.50;;;0.40;;
27313;SDS011;14800;48.174;9.798;2023-12-22T04:33:56;3.83;;;0.60;;
27313;SDS011;14800;48.174;9.798;2023-12-22T04:36:21;1.20;;;0.45;;
27313;SDS011;14800;48.174;9.798;2023-12-22T04:38:47;3.90;;;0.82;;
27313;SDS011;14800;48.174;9.798;2023-12-22T04:41:12;4.05;;;1.25;;
27313;SDS011;14800;48.174;9.798;2023-12-22T04:43:38;3.13;;;1.08;;
27313;SDS011;14800;48.174;9.798;2023-12-22T04:46:03;2.53;;;0.90;;
27313;SDS011;14800;48.174;9.798;2023-12-22T04:48:29;3.38;;;0.80;;
27313;SDS011;14800;48.174;9.798;2023-12-22T04:50:55;3.05;;;0.85;;
27313;SDS011;14800;48.174;9.798;2023-12-22T04:53:20;2.40;;;0.70;;
27313;SDS011;14800;48.174;9.798;2023-12-22T04:55:46;6.95;;;0.90;;
27313;SDS011;14800;48.174;9.798;2023-12-22T04:58:11;4.60;;;0.77;;
27313;SDS011;14800;48.174;9.798;2023-12-22T05:00:37;3.85;;;0.80;;
27313;SDS011;14800;48.174;9.798;2023-12-22T05:03:02;3.03;;;1.00;;
27313;SDS011;14800;48.174;9.798;2023-12-22T05:05:28;4.75;;;0.95;;
27313;SDS011;14800;48.174;9.798;2023-12-22T05:07:54;3.22;;;0.75;;
27313;SDS011;14800;48.174;9.798;2023-12-22T05:10:19;3.65;;;1.13;;
27313;SDS011;14800;48.174;9.798;2023-12-22T05:12:45;2.13;;;0.90;;
27313;SDS011;14800;48.174;9.798;2023-12-22T05:15:11;2.28;;;0.80;;
27313;SDS011;14800;48.174;9.798;2023-12-22T05:17:36;3.28;;;0.65;;
27313;SDS011;14800;48.174;9.798;2023-12-22T05:20:02;2.13;;;0.50;;
27313;SDS011;14800;48.174;9.798;2023-12-22T05:22:28;1.48;;;0.38;;
27313;SDS011;14800;48.174;9.798;2023-12-22T05:24:57;0.93;;;0.20;;
27313;SDS011;14800;48.174;9.798;2023-12-22T05:27:23;2.53;;;0.40;;
27313;SDS011;14800;48.174;9.798;2023-12-22T05:29:49;1.25;;;0.40;;
27313;SDS011;14800;48.174;9.798;2023-12-22T05:32:15;1.83;;;0.60;;
27313;SDS011;14800;48.174;9.798;2023-12-22T05:34:40;0.88;;;0.40;;
27313;SDS011;14800;48.174;9.798;2023-12-22T05:37:06;2.25;;;0.40;;
27313;SDS011;14800;48.174;9.798;2023-12-22T05:39:31;1.10;;;0.40;;
27313;SDS011;14800;48.174;9.798;2023-12-22T05:41:57;1.30;;;0.30;;
27313;SDS011;14800;48.174;9.798;2023-12-22T05:44:23;2.88;;;0.40;;
27313;SDS011;14800;48.174;9.798;2023-12-22T05:46:49;1.50;;;0.40;;
27313;SDS011;14800;48.174;9.798;2023-12-22T05:49:15;1.63;;;0.52;;
27313;SDS011;14800;48.174;9.798;2023-12-22T05:51:41;2.75;;;0.55;;
27313;SDS011;14800;48.174;9.798;2023-12-22T05:54:07;1.85;;;0.50;;
27313;SDS011;14800;48.174;9.798;2023-12-22T05:56:33;3.00;;;0.82;;
27313;SDS011;14800;48.174;9.798;2023-12-22T05:58:59;3.05;;;0.80;;
27313;SDS011;14800;48.174;9.798;2023-12-22T06:01:25;4.38;;;0.90;;
27313;SDS011;14800;48.174;9.798;2023-12-22T06:03:51;4.18;;;0.80;;
27313;SDS011;14800;48.174;9.798;2023-12-22T06:06:16;5.72;;;0.95;;
27313;SDS011;14800;48.174;9.798;2023-12-22T06:08:43;3.28;;;0.88;;
27313;SDS011;14800;48.174;9.798;2023-12-22T06:11:09;4.35;;;0.70;;
27313;SDS011;14800;48.174;9.798;2023-12-22T06:13:34;3.20;;;1.10;;
27313;SDS011;14800;48.174;9.798;2023-12-22T06:16:00;5.60;;;1.15;;
27313;SDS011;14800;48.174;9.798;2023-12-22T06:18:26;4.63;;;0.95;;
27313;SDS011;14800;48.174;9.798;2023-12-22T06:20:51;4.70;;;1.20;;
27313;SDS011;14800;48.174;9.798;2023-12-22T06:23:17;5.15;;;1.00;;
27313;SDS011;14800;48.174;9.798;2023-12-22T06:25:43;9.95;;;1.35;;
27313;SDS011;14800;48.174;9.798;2023-12-22T06:28:11;3.85;;;1.05;;
27313;SDS011;14800;48.174;9.798;2023-12-22T06:30:37;5.85;;;1.20;;
27313;SDS011;14800;48.174;9.798;2023-12-22T06:33:03;5.22;;;1.33;;
27313;SDS011;14800;48.174;9.798;2023-12-22T06:35:28;3.92;;;0.98;;
27313;SDS011;14800;48.174;9.798;2023-12-22T06:37:54;7.63;;;1.23;;
27313;SDS011;14800;48.174;9.798;2023-12-22T06:40:21;3.78;;;0.73;;
27313;SDS011;14800;48.174;9.798;2023-12-22T06:42:46;2.80;;;0.90;;
27313;SDS011;14800;48.174;9.798;2023-12-22T06:45:12;5.25;;;1.30;;
27313;SDS011;14800;48.174;9.798;2023-12-22T06:47:37;3.55;;;0.80;;
27313;SDS011;14800;48.174;9.798;2023-12-22T06:50:03;6.70;;;1.10;;
27313;SDS011;14800;48.174;9.798;2023-12-22T06:52:29;4.40;;;1.40;;
27313;SDS011;14800;48.174;9.798;2023-12-22T06:54:58;4.68;;;0.90;;
27313;SDS011;14800;48.174;9.798;2023-12-22T06:57:23;6.43;;;1.15;;
27313;SDS011;14800;48.174;9.798;2023-12-22T06:59:49;3.78;;;1.00;;
27313;SDS011;14800;48.174;9.798;2023-12-22T07:02:14;5.28;;;1.67;;
27313;SDS011;14800;48.174;9.798;2023-12-22T07:04:59;4.63;;;1.45;;
27313;SDS011;14800;48.174;9.798;2023-12-22T07:07:31;4.47;;;1.10;;
27313;SDS011;14800;48.174;9.798;2023-12-22T07:09:57;4.00;;;0.82;;
27313;SDS011;14800;48.174;9.798;2023-12-22T07:12:22;5.18;;;1.13;;
27313;SDS011;14800;48.174;9.798;2023-12-22T07:14:48;3.22;;;1.10;;
27313;SDS011;14800;48.174;9.798;2023-12-22T07:17:13;5.18;;;1.30;;
27313;SDS011;14800;48.174;9.798;2023-12-22T07:19:39;3.25;;;0.93;;
27313;SDS011;14800;48.174;9.798;2023-12-22T07:22:05;4.72;;;0.90;;
27313;SDS011;14800;48.174;9.798;2023-12-22T07:24:30;6.78;;;1.27;;
27313;SDS011;14800;48.174;9.798;2023-12-22T07:26:56;5.47;;;1.17;;
27313;SDS011;14800;48.174;9.798;2023-12-22T07:29:21;4.88;;;1.10;;
27313;SDS011;14800;48.174;9.798;2023-12-22T07:31:47;6.07;;;1.45;;
27313;SDS011;14800;48.174;9.798;2023-12-22T07:34:12;6.20;;;1.15;;
27313;SDS011;14800;48.174;9.798;2023-12-22T07:36:38;4.50;;;1.08;;
27313;SDS011;14800;48.174;9.798;2023-12-22T07:39:04;5.78;;;1.42;;
27313;SDS011;14800;48.174;9.798;2023-12-22T07:41:31;4.05;;;1.25;;
27313;SDS011;14800;48.174;9.798;2023-12-22T07:43:56;5.30;;;1.52;;
27313;SDS011;14800;48.174;9.798;2023-12-22T07:46:22;6.53;;;1.27;;
27313;SDS011;14800;48.174;9.798;2023-12-22T07:48:48;3.10;;;0.85;;
27313;SDS011;14800;48.174;9.798;2023-12-22T07:51:13;2.70;;;0.98;;
27313;SDS011;14800;48.174;9.798;2023-12-22T07:53:39;2.13;;;0.90;;
27313;SDS011;14800;48.174;9.798;2023-12-22T07:56:05;3.22;;;0.73;;
27313;SDS011;14800;48.174;9.798;2023-12-22T07:58:32;2.88;;;0.82;;
27313;SDS011;14800;48.174;9.798;2023-12-22T08:00:58;2.70;;;0.60;;
27313;SDS011;14800;48.174;9.798;2023-12-22T08:03:23;1.90;;;0.70;;
27313;SDS011;14800;48.174;9.798;2023-12-22T08:05:49;4.30;;;1.00;;
27313;SDS011;14800;48.174;9.798;2023-12-22T08:08:15;4.10;;;1.00;;
27313;SDS011;14800;48.174;9.798;2023-12-22T08:10:40;2.95;;;0.75;;
27313;SDS011;14800;48.174;9.798;2023-12-22T08:13:06;5.00;;;1.15;;
27313;SDS011;14800;48.174;9.798;2023-12-22T08:15:32;3.25;;;0.90;;
27313;SDS011;14800;48.174;9.798;2023-12-22T08:17:57;2.65;;;0.80;;
27313;SDS011;14800;48.174;9.798;2023-12-22T08:20:23;3.65;;;1.08;;
27313;SDS011;14800;48.174;9.798;2023-12-22T08:22:49;3.92;;;0.98;;
27313;SDS011;14800;48.174;9.798;2023-12-22T08:25:15;2.45;;;0.80;;
27313;SDS011;14800;48.174;9.798;2023-12-22T08:27:44;3.10;;;0.80;;
27313;SDS011;14800;48.174;9.798;2023-12-22T08:30:10;1.75;;;0.60;;
27313;SDS011;14800;48.174;9.798;2023-12-22T08:32:36;4.45;;;0.90;;
27313;SDS011;14800;48.174;9.798;2023-12-22T08:35:02;4.25;;;0.70;;
27313;SDS011;14800;48.174;9.798;2023-12-22T08:37:29;3.83;;;0.95;;
27313;SDS011;14800;48.174;9.798;2023-12-22T08:39:55;5.15;;;0.80;;
27313;SDS011;14800;48.174;9.798;2023-12-22T08:42:21;2.75;;;1.05;;
27313;SDS011;14800;48.174;9.798;2023-12-22T08:44:47;3.85;;;0.80;;
27313;SDS011;14800;48.174;9.798;2023-12-22T08:47:13;4.22;;;0.80;;
27313;SDS011;14800;48.174;9.798;2023-12-22T08:49:38;4.78;;;0.85;;
27313;SDS011;14800;48.174;9.798;2023-12-22T08:52:04;4.18;;;1.20;;
27313;SDS011;14800;48.174;9.798;2023-12-22T08:54:30;7.57;;;1.25;;
27313;SDS011;14800;48.174;9.798;2023-12-22T08:56:55;2.97;;;1.05;;
27313;SDS011;14800;48.174;9.798;2023-12-22T08:59:21;6.47;;;1.60;;
27313;SDS011;14800;48.174;9.798;2023-12-22T09:01:47;6.00;;;1.10;;
27313;SDS011;14800;48.174;9.798;2023-12-22T09:04:12;3.70;;;1.13;;
27313;SDS011;14800;48.174;9.798;2023-12-22T09:06:38;5.18;;;0.90;;
27313;SDS011;14800;48.174;9.798;2023-12-22T09:09:04;4.47;;;0.90;;
27313;SDS011;14800;48.174;9.798;2023-12-22T09:11:30;4.57;;;1.00;;
27313;SDS011;14800;48.174;9.798;2023-12-22T09:13:55;4.78;;;0.90;;
27313;SDS011;14800;48.174;9.798;2023-12-22T09:16:21;3.60;;;0.90;;
27313;SDS011;14800;48.174;9.798;2023-12-22T09:18:47;3.53;;;1.00;;
27313;SDS011;14800;48.174;9.798;2023-12-22T09:21:14;2.33;;;0.73;;
27313;SDS011;14800;48.174;9.798;2023-12-22T09:23:40;3.28;;;0.95;;
27313;SDS011;14800;48.174;9.798;2023-12-22T09:26:09;4.38;;;1.08;;
27313;SDS011;14800;48.174;9.798;2023-12-22T09:28:35;3.38;;;0.98;;
27313;SDS011;14800;48.174;9.798;2023-12-22T09:31:00;2.72;;;0.90;;
27313;SDS011;14800;48.174;9.798;2023-12-22T09:33:27;2.83;;;0.77;;
27313;SDS011;14800;48.174;9.798;2023-12-22T09:35:52;5.75;;;0.93;;
27313;SDS011;14800;48.174;9.798;2023-12-22T09:38:18;3.85;;;0.90;;
27313;SDS011;14800;48.174;9.798;2023-12-22T09:40:44;2.28;;;0.68;;
27313;SDS011;14800;48.174;9.798;2023-12-22T09:43:09;1.88;;;0.55;;
27313;SDS011;14800;48.174;9.798;2023-12-22T09:45:38;1.95;;;0.50;;
27313;SDS011;14800;48.174;9.798;2023-12-22T09:48:05;3.13;;;0.82;;
27313;SDS011;14800;48.174;9.798;2023-12-22T09:50:31;3.60;;;0.98;;
27313;SDS011;14800;48.174;9.798;2023-12-22T09:52:59;2.95;;;0.90;;
27313;SDS011;14800;48.174;9.798;2023-12-22T09:55:26;3.22;;;0.63;;
27313;SDS011;14800;48.174;9.798;2023-12-22T09:57:53;2.83;;;0.63;;
27313;SDS011;14800;48.174;9.798;2023-12-22T10:00:19;3.92;;;0.93;;
27313;SDS011;14800;48.174;9.798;2023-12-22T10:02:47;2.22;;;1.15;;
27313;SDS011;14800;48.174;9.798;2023-12-22T10:05:13;2.83;;;0.65;;
27313;SDS011;14800;48.174;9.798;2023-12-22T10:07:40;3.50;;;0.60;;
27313;SDS011;14800;48.174;9.798;2023-12-22T10:10:09;2.40;;;0.60;;
27313;SDS011;14800;48.174;9.798;2023-12-22T10:12:36;2.70;;;0.90;;
27313;SDS011;14800;48.174;9.798;2023-12-22T10:15:04;1.88;;;0.68;;
27313;SDS011;14800;48.174;9.798;2023-12-22T10:17:33;2.53;;;0.63;;
27313;SDS011;14800;48.174;9.798;2023-12-22T10:20:01;2.40;;;0.55;;
27313;SDS011;14800;48.174;9.798;2023-12-22T10:22:26;2.38;;;0.60;;
27313;SDS011;14800;48.174;9.798;2023-12-22T10:24:52;2.72;;;0.70;;
27313;SDS011;14800;48.174;9.798;2023-12-22T10:27:18;5.90;;;2.60;;
27313;SDS011;14800;48.174;9.798;2023-12-22T10:29:48;4.72;;;2.42;;
27313;SDS011;14800;48.174;9.798;2023-12-22T10:32:14;2.25;;;1.20;;
27313;SDS011;14800;48.174;9.798;2023-12-22T10:34:40;3.05;;;0.90;;
27313;SDS011;14800;48.174;9.798;2023-12-22T10:37:06;2.00;;;0.80;;
27313;SDS011;14800;48.174;9.798;2023-12-22T10:39:32;1.92;;;0.60;;
27313;SDS011;14800;48.174;9.798;2023-12-22T10:41:58;3.20;;;1.00;;
27313;SDS011;14800;48.174;9.798;2023-12-22T10:44:24;3.35;;;0.88;;
27313;SDS011;14800;48.174;9.798;2023-12-22T10:46:50;2.88;;;0.63;;
27313;SDS011;14800;48.174;9.798;2023-12-22T10:49:17;3.75;;;1.15;;
27313;SDS011;14800;48.174;9.798;2023-12-22T10:51:42;4.63;;;1.20;;
27313;SDS011;14800;48.174;9.798;2023-12-22T10:54:08;4.22;;;1.80;;
27313;SDS011;14800;48.174;9.798;2023-12-22T10:56:34;3.65;;;2.17;;
27313;SDS011;14800;48.174;9.798;2023-12-22T10:59:00;4.82;;;1.95;;
27313;SDS011;14800;48.174;9.798;2023-12-22T11:01:29;3.53;;;1.15;;
27313;SDS011;14800;48.174;9.798;2023-12-22T11:03:57;3.20;;;0.90;;
27313;SDS011;14800;48.174;9.798;2023-12-22T11:06:26;5.82;;;1.10;;
27313;SDS011;14800;48.174;9.798;2023-12-22T11:08:54;3.65;;;0.90;;
27313;SDS011;14800;48.174;9.798;2023-12-22T11:11:35;1.27;;;0.55;;
27313;SDS011;14800;48.174;9.798;2023-12-22T11:14:02;2.85;;;0.80;;
27313;SDS011;14800;48.174;9.798;2023-12-22T11:16:28;2.63;;;0.80;;
27313;SDS011;14800;48.174;9.798;2023-12-22T11:18:55;2.47;;;0.70;;
27313;SDS011;14800;48.174;9.798;2023-12-22T11:21:22;4.10;;;0.68;;
27313;SDS011;14800;48.174;9.798;2023-12-22T11:23:52;2.30;;;0.70;;
27313;SDS011;14800;48.174;9.798;2023-12-22T11:26:18;2.40;;;0.68;;
27313;SDS011;14800;48.174;9.798;2023-12-22T11:28:45;2.53;;;0.80;;
27313;SDS011;14800;48.174;9.798;2023-12-22T11:31:12;2.22;;;0.65;;
27313;SDS011;14800;48.174;9.798;2023-12-22T11:33:39;3.63;;;0.80;;
27313;SDS011;14800;48.174;9.798;2023-12-22T11:36:11;3.10;;;0.80;;
27313;SDS011;14800;48.174;9.798;2023-12-22T11:38:39;4.00;;;1.08;;
27313;SDS011;14800;48.174;9.798;2023-12-22T11:41:10;3.42;;;0.60;;
27313;SDS011;14800;48.174;9.798;2023-12-22T11:43:46;2.53;;;0.60;;
27313;SDS011;14800;48.174;9.798;2023-12-22T11:46:13;2.58;;;0.60;;
27313;SDS011;14800;48.174;9.798;2023-12-22T11:48:48;4.38;;;0.93;;
27313;SDS011;14800;48.174;9.798;2023-12-22T11:51:16;3.63;;;1.13;;
27313;SDS011;14800;48.174;9.798;2023-12-22T11:53:42;3.97;;;1.13;;
27313;SDS011;14800;48.174;9.798;2023-12-22T11:56:09;5.55;;;1.15;;
27313;SDS011;14800;48.174;9.798;2023-12-22T11:58:42;3.80;;;0.82;;
27313;SDS011;14800;48.174;9.798;2023-12-22T12:01:16;4.05;;;0.82;;
27313;SDS011;14800;48.174;9.798;2023-12-22T12:06:22;3.25;;;1.17;;
27313;SDS011;14800;48.174;9.798;2023-12-22T12:08:51;4.30;;;1.38;;
27313;SDS011;14800;48.174;9.798;2023-12-22T12:11:20;3.40;;;0.73;;
27313;SDS011;14800;48.174;9.798;2023-12-22T12:13:47;3.55;;;1.10;;
27313;SDS011;14800;48.174;9.798;2023-12-22T12:16:14;3.97;;;1.00;;
27313;SDS011;14800;48.174;9.798;2023-12-22T12:18:44;3.15;;;0.70;;
27313;SDS011;14800;48.174;9.798;2023-12-22T12:21:10;3.03;;;0.85;;
27313;SDS011;14800;48.174;9.798;2023-12-22T12:23:37;3.25;;;0.70;;
27313;SDS011;14800;48.174;9.798;2023-12-22T12:26:05;3.50;;;0.75;;
27313;SDS011;14800;48.174;9.798;2023-12-22T12:28:32;2.65;;;0.55;;
27313;SDS011;14800;48.174;9.798;2023-12-22T12:30:59;4.95;;;1.02;;
27313;SDS011;14800;48.174;9.798;2023-12-22T12:33:25;3.97;;;0.95;;
27313;SDS011;14800;48.174;9.798;2023-12-22T12:35:52;5.15;;;1.00;;
27313;SDS011;14800;48.174;9.798;2023-12-22T12:38:23;4.55;;;0.90;;
27313;SDS011;14800;48.174;9.798;2023-12-22T12:41:22;4.72;;;0.98;;
27313;SDS011;14800;48.174;9.798;2023-12-22T12:43:59;2.35;;;0.70;;
27313;SDS011;14800;48.174;9.798;2023-12-22T12:46:32;4.47;;;1.30;;
27313;SDS011;14800;48.174;9.798;2023-12-22T12:49:02;3.80;;;0.80;;
27313;SDS011;14800;48.174;9.798;2023-12-22T12:51:38;4.20;;;1.17;;
27313;SDS011;14800;48.174;9.798;2023-12-22T12:54:05;6.30;;;1.60;;
27313;SDS011;14800;48.174;9.798;2023-12-22T12:56:41;3.88;;;1.00;;
27313;SDS011;14800;48.174;9.798;2023-12-22T12:59:10;4.00;;;1.13;;
27313;SDS011;14800;48.174;9.798;2023-12-22T13:01:46;3.88;;;1.23;;
27313;SDS011;14800;48.174;9.798;2023-12-22T13:04:13;4.18;;;1.23;;
27313;SDS011;14800;48.174;9.798;2023-12-22T13:06:57;5.13;;;1.20;;
27313;SDS011;14800;48.174;9.798;2023-12-22T13:09:31;3.67;;;1.00;;
27313;SDS011;14800;48.174;9.798;2023-12-22T13:11:58;5.65;;;1.13;;
27313;SDS011;14800;48.174;9.798;2023-12-22T13:14:24;2.65;;;1.15;;
27313;SDS011;14800;48.174;9.798;2023-12-22T13:16:50;3.13;;;0.63;;
27313;SDS011;14800;48.174;9.798;2023-12-22T13:19:19;5.05;;;0.85;;
27313;SDS011;14800;48.174;9.798;2023-12-22T13:21:44;2.33;;;0.75;;
27313;SDS011;14800;48.174;9.798;2023-12-22T13:24:14;2.63;;;0.77;;
27313;SDS011;14800;48.174;9.798;2023-12-22T13:26:43;1.65;;;0.75;;
27313;SDS011;14800;48.174;9.798;2023-12-22T13:29:10;1.70;;;0.63;;
27313;SDS011;14800;48.174;9.798;2023-12-22T13:31:37;1.35;;;0.50;;
27313;SDS011;14800;48.174;9.798;2023-12-22T13:34:08;0.57;;;0.20;;
27313;SDS011;14800;48.174;9.798;2023-12-22T13:36:34;0.52;;;0.20;;
27313;SDS011;14800;48.174;9.798;2023-12-22T13:39:01;1.95;;;0.32;;
27313;SDS011;14800;48.174;9.798;2023-12-22T13:41:34;0.77;;;0.28;;
27313;SDS011;14800;48.174;9.798;2023-12-22T13:44:06;0.85;;;0.20;;
27313;SDS011;14800;48.174;9.798;2023-12-22T13:46:32;0.85;;;0.20;;
27313;SDS011;14800;48.174;9.798;2023-12-22T13:49:00;0.88;;;0.20;;
27313;SDS011;14800;48.174;9.798;2023-12-22T13:51:27;0.65;;;0.20;;
27313;SDS011;14800;48.174;9.798;2023-12-22T13:54:03;0.15;;;0.13;;
27313;SDS011;14800;48.174;9.798;2023-12-22T13:56:32;0.17;;;0.10;;
27313;SDS011;14800;48.174;9.798;2023-12-22T13:59:02;0.20;;;0.17;;
27313;SDS011;14800;48.174;9.798;2023-12-22T14:01:28;0.55;;;0.20;;
27313;SDS011;14800;48.174;9.798;2023-12-22T14:03:54;0.47;;;0.20;;
27313;SDS011;14800;48.174;9.798;2023-12-22T14:06:22;0.50;;;0.30;;
27313;SDS011;14800;48.174;9.798;2023-12-22T14:08:48;0.50;;;0.22;;
27313;SDS011;14800;48.174;9.798;2023-12-22T14:11:14;0.85;;;0.35;;
27313;SDS011;14800;48.174;9.798;2023-12-22T14:13:40;0.82;;;0.30;;
27313;SDS011;14800;48.174;9.798;2023-12-22T14:16:06;0.17;;;0.10;;
27313;SDS011;14800;48.174;9.798;2023-12-22T14:18:32;0.40;;;0.20;;
27313;SDS011;14800;48.174;9.798;2023-12-22T14:20:58;1.45;;;0.30;;
27313;SDS011;14800;48.174;9.798;2023-12-22T14:23:24;0.73;;;0.30;;
27313;SDS011;14800;48.174;9.798;2023-12-22T14:25:50;0.57;;;0.38;;
27313;SDS011;14800;48.174;9.798;2023-12-22T14:28:15;1.27;;;0.40;;
27313;SDS011;14800;48.174;9.798;2023-12-22T14:30:41;0.25;;;0.10;;
27313;SDS011;14800;48.174;9.798;2023-12-22T14:33:07;0.43;;;0.20;;
27313;SDS011;14800;48.174;9.798;2023-12-22T14:35:33;0.30;;;0.20;;
27313;SDS011;14800;48.174;9.798;2023-12-22T14:37:58;0.60;;;0.20;;
27313;SDS011;14800;48.174;9.798;2023-12-22T14:40:24;0.63;;;0.20;;
27313;SDS011;14800;48.174;9.798;2023-12-22T14:42:50;1.75;;;0.30;;
27313;SDS011;14800;48.174;9.798;2023-12-22T14:45:15;1.55;;;0.22;;
27313;SDS011;14800;48.174;9.798;2023-12-22T14:47:41;0.20;;;0.10;;